Time;durP1;ratioP1;P1;durP2;ratioP2;P2;SDS_P1;SDS_P2;PMS_P1;PMS_P2;Temp;Humidity;BMP_temperature;BMP_pressure;BME280_temperature;BME280_humidity;BME280_pressure;Samples;Min_cycle;Max_cycle;Signal;HPM_P1;HPM_P2
2022/12/23 00:00:17;;;;;;;8.85;6.38;;;;;;;8.51;100.00;97954.38;5124584;27;20057;-79
2022/12/23 00:02:43;;;;;;;9.02;6.53;;;;;;;8.59;100.00;97950.72;5127881;27;20476;-80
2022/12/23 00:05:09;;;;;;;10.25;6.32;;;;;;;8.76;100.00;97956.28;5125965;27;20114;-80
2022/12/23 00:07:35;;;;;;;10.52;5.78;;;;;;;8.68;100.00;97944.25;5110805;27;20031;-79
2022/12/23 00:10:01;;;;;;;10.82;6.88;;;;;;;8.67;100.00;97958.34;5120484;27;20388;-80
2022/12/23 00:15:12;;;;;;;12.45;7.43;;;;;;;8.77;100.00;97954.44;5126342;27;20079;-80
2022/12/23 00:17:41;;;;;;;10.77;6.38;;;;;;;8.86;100.00;97940.13;5099996;27;20027;-81
2022/12/23 00:20:08;;;;;;;10.05;6.78;;;;;;;8.87;100.00;97954.81;5109409;27;20465;-80
2022/12/23 00:25:38;;;;;;;10.40;6.72;;;;;;;8.93;100.00;97964.44;5124393;27;20045;-81
2022/12/23 00:28:16;;;;;;;12.63;7.05;;;;;;;9.12;100.00;97959.28;5122300;27;20023;-80
2022/12/23 00:30:46;;;;;;;10.18;7.15;;;;;;;8.87;100.00;97957.44;5121013;27;20046;-80
2022/12/23 00:33:15;;;;;;;10.65;6.93;;;;;;;9.05;100.00;97955.94;5126618;27;20047;-78
2022/12/23 00:35:43;;;;;;;13.25;6.50;;;;;;;9.07;100.00;97956.50;5120183;28;20042;-79
2022/12/23 00:38:08;;;;;;;10.25;6.50;;;;;;;9.08;100.00;97958.13;5102657;28;20031;-79
2022/12/23 00:43:18;;;;;;;9.15;6.00;;;;;;;8.90;100.00;97962.25;5105638;28;20031;-78
2022/12/23 00:45:46;;;;;;;10.70;5.70;;;;;;;8.85;100.00;97949.00;5123723;28;20110;-78
2022/12/23 00:50:56;;;;;;;15.50;5.85;;;;;;;8.75;100.00;97964.34;5104157;28;20039;-79
2022/12/23 00:53:22;;;;;;;10.02;4.82;;;;;;;8.62;100.00;97949.50;5120759;28;20130;-80
2022/12/23 00:55:49;;;;;;;14.18;5.30;;;;;;;8.61;100.00;97953.91;5120842;28;20447;-80
2022/12/23 00:58:16;;;;;;;10.30;5.53;;;;;;;8.57;100.00;97942.28;5102891;28;20386;-80
2022/12/23 01:06:28;;;;;;;11.20;5.40;;;;;;;8.28;100.00;97962.69;5072584;28;20154;-79
2022/12/23 01:08:54;;;;;;;11.25;5.38;;;;;;;8.17;100.00;97948.44;5079370;28;20047;-80
2022/12/23 01:11:20;;;;;;;14.48;5.57;;;;;;;8.32;100.00;97955.22;5121728;28;20031;-79
2022/12/23 01:13:45;;;;;;;13.82;5.65;;;;;;;8.27;100.00;97958.47;5103740;28;20028;-81
2022/12/23 01:16:11;;;;;;;13.27;6.10;;;;;;;8.36;100.00;97938.13;5123517;28;20106;-81
2022/12/23 01:18:37;;;;;;;9.88;5.30;;;;;;;8.48;100.00;97953.97;5124562;28;20097;-80
2022/12/23 01:21:06;;;;;;;13.32;5.90;;;;;;;8.39;100.00;97948.94;5122055;28;20407;-80
2022/12/23 01:23:32;;;;;;;17.80;6.20;;;;;;;8.41;100.00;97954.78;5120337;28;20040;-79
2022/12/23 01:26:00;;;;;;;9.95;5.93;;;;;;;8.39;100.00;97946.34;5122378;28;20438;-79
2022/12/23 01:28:28;;;;;;;16.77;6.25;;;;;;;8.36;100.00;97946.75;5118926;28;20068;-80
2022/12/23 01:30:53;;;;;;;9.65;3.72;;;;;;;8.49;100.00;97935.44;5103612;28;20050;-79
2022/12/23 01:33:23;;;;;;;11.70;4.10;;;;;;;8.59;100.00;97934.22;5121165;27;20058;-79
2022/12/23 01:35:48;;;;;;;17.58;4.38;;;;;;;8.37;100.00;97924.03;5128662;27;20563;-79
2022/12/23 01:38:14;;;;;;;11.00;4.45;;;;;;;8.41;100.00;97939.09;5123146;27;20023;-79
2022/12/23 01:40:42;;;;;;;11.48;3.55;;;;;;;8.57;100.00;97947.50;5128149;27;20110;-79
2022/12/23 01:43:18;;;;;;;8.45;3.85;;;;;;;8.51;100.00;97943.91;5106210;28;20032;-79
2022/12/23 01:45:45;;;;;;;9.23;4.28;;;;;;;8.51;100.00;97946.53;5129748;27;20488;-80
2022/12/23 01:48:20;;;;;;;9.77;5.05;;;;;;;8.47;100.00;97947.91;5105881;27;20115;-79
2022/12/23 01:51:00;;;;;;;10.88;5.03;;;;;;;8.69;100.00;97961.53;5122224;27;21915;-79
2022/12/23 01:53:29;;;;;;;13.63;4.75;;;;;;;8.47;100.00;97952.38;5123985;27;20061;-79
2022/12/23 01:56:11;;;;;;;11.63;5.20;;;;;;;8.52;100.00;97970.88;5122667;27;20052;-80
2022/12/23 01:58:37;;;;;;;13.07;5.35;;;;;;;8.31;100.00;97937.91;5104406;27;20471;-79
2022/12/23 02:03:54;;;;;;;12.07;4.82;;;;;;;8.67;100.00;97947.06;5125557;27;20031;-80
2022/12/23 02:09:27;;;;;;;8.95;4.20;;;;;;;8.70;100.00;97950.06;5060365;27;20041;-78
2022/12/23 02:11:58;;;;;;;9.38;4.68;;;;;;;8.54;100.00;97950.53;5123565;27;20023;-80
2022/12/23 02:17:56;;;;;;;15.40;4.40;;;;;;;8.93;100.00;97950.53;5124660;27;20061;-81
2022/12/23 02:21:03;;;;;;;18.95;4.25;;;;;;;8.99;100.00;97960.97;5075756;27;20047;-80
2022/12/23 02:23:54;;;;;;;8.77;3.47;;;;;;;9.03;100.00;97956.13;5051354;28;20029;-80
2022/12/23 02:26:35;;;;;;;15.02;4.45;;;;;;;8.91;100.00;97952.56;5051927;28;20043;-80
2022/12/23 02:29:34;;;;;;;11.38;4.50;;;;;;;8.91;100.00;97948.16;5087450;27;20088;-80
2022/12/23 02:32:08;;;;;;;6.07;3.42;;;;;;;8.86;100.00;97946.16;5123006;27;20031;-80
2022/12/23 02:34:46;;;;;;;11.55;4.10;;;;;;;9.11;100.00;97931.50;5123229;27;20076;-81
2022/12/23 02:37:18;;;;;;;8.25;4.20;;;;;;;9.09;100.00;97926.47;5105978;27;20027;-79
2022/12/23 02:39:54;;;;;;;9.43;3.90;;;;;;;9.13;100.00;97934.72;5132208;27;20044;-79
2022/12/23 02:42:29;;;;;;;16.00;6.30;;;;;;;9.16;100.00;97933.50;5107587;27;20023;-78
2022/12/23 02:45:06;;;;;;;11.65;4.63;;;;;;;9.11;100.00;97931.50;5124810;27;20027;-79
2022/12/23 02:47:36;;;;;;;7.82;4.50;;;;;;;9.12;100.00;97947.00;5125473;27;20031;-80
2022/12/23 02:50:13;;;;;;;14.00;5.90;;;;;;;9.10;100.00;97929.91;5121986;27;20081;-80
2022/12/23 02:52:43;;;;;;;8.50;4.75;;;;;;;9.14;100.00;97929.28;5103510;27;20091;-79
2022/12/23 02:55:15;;;;;;;8.30;4.63;;;;;;;9.11;100.00;97927.06;5124541;27;20076;-80
2022/12/23 02:57:47;;;;;;;9.32;4.90;;;;;;;9.07;100.00;97930.34;5126953;27;20031;-80
2022/12/23 03:00:14;;;;;;;11.70;5.43;;;;;;;9.14;100.00;97941.56;5127178;27;20378;-80
2022/12/23 03:02:41;;;;;;;15.77;6.63;;;;;;;8.98;100.00;97943.66;5118519;27;20019;-79
2022/12/23 03:05:28;;;;;;;13.18;6.90;;;;;;;8.91;100.00;97927.22;5124768;27;20154;-80
2022/12/23 03:07:59;;;;;;;13.65;6.45;;;;;;;8.91;100.00;97910.69;5123664;27;20534;-79
2022/12/23 03:10:54;;;;;;;8.48;5.38;;;;;;;9.14;100.00;97925.84;5108546;27;20035;-80
2022/12/23 03:13:51;;;;;;;15.38;5.75;;;;;;;9.19;100.00;97923.38;5129005;27;20035;-80
2022/12/23 03:16:26;;;;;;;16.67;6.07;;;;;;;9.26;100.00;97910.25;5083622;27;20390;-80
2022/12/23 03:19:01;;;;;;;11.52;5.35;;;;;;;9.23;100.00;97914.09;5120269;27;20039;-80
2022/12/23 03:21:45;;;;;;;12.38;5.00;;;;;;;9.16;100.00;97923.03;5126173;27;20046;-80
2022/12/23 03:24:23;;;;;;;13.10;5.22;;;;;;;9.22;100.00;97925.56;5116766;27;20062;-80
2022/12/23 03:26:53;;;;;;;7.75;4.60;;;;;;;9.23;100.00;97910.69;5123681;27;20401;-79
2022/12/23 03:29:27;;;;;;;13.70;4.88;;;;;;;9.29;100.00;97913.25;5125920;27;20031;-79
2022/12/23 03:31:56;;;;;;;7.72;4.47;;;;;;;9.18;100.00;97898.22;5103563;27;20035;-80
2022/12/23 03:34:28;;;;;;;12.27;4.95;;;;;;;9.12;100.00;97888.59;5124453;27;20023;-81
2022/12/23 03:36:59;;;;;;;10.18;5.30;;;;;;;9.19;100.00;97901.66;5104069;27;20038;-81
2022/12/23 03:39:32;;;;;;;12.18;5.38;;;;;;;9.08;100.00;97900.53;5121887;27;20051;-80
2022/12/23 03:42:04;;;;;;;10.60;5.22;;;;;;;9.20;100.00;97919.75;5122113;27;20106;-81
2022/12/23 03:44:44;;;;;;;14.85;5.28;;;;;;;9.16;100.00;97908.09;5132773;27;20043;-79
2022/12/23 03:47:15;;;;;;;14.30;5.35;;;;;;;9.21;100.00;97926.59;5126683;27;20415;-80
2022/12/23 03:49:51;;;;;;;15.07;5.35;;;;;;;9.16;100.00;97917.78;5124568;27;20480;-81
2022/12/23 03:52:21;;;;;;;11.93;5.47;;;;;;;9.19;100.00;97933.06;5121641;27;20480;-80
2022/12/23 03:54:54;;;;;;;13.50;5.45;;;;;;;9.11;100.00;97926.28;5102755;27;20039;-80
2022/12/23 03:57:27;;;;;;;12.52;5.47;;;;;;;9.19;100.00;97939.09;5122723;27;20035;-80
2022/12/23 03:59:53;;;;;;;11.23;5.50;;;;;;;9.22;100.00;97941.28;5120992;27;20098;-80
2022/12/23 04:02:34;;;;;;;13.10;5.47;;;;;;;9.29;100.00;97947.28;5105830;27;20102;-81
2022/12/23 04:05:16;;;;;;;11.70;5.80;;;;;;;9.31;100.00;97941.81;5121308;27;20050;-80
2022/12/23 04:07:59;;;;;;;14.88;5.53;;;;;;;9.19;100.00;97928.63;5124464;27;20510;-79
2022/12/23 04:10:26;;;;;;;10.93;5.65;;;;;;;9.19;100.00;97927.84;5137015;27;20059;-80
2022/12/23 04:12:57;;;;;;;14.05;6.22;;;;;;;9.15;100.00;97916.97;5121429;27;20028;-80
2022/12/23 04:15:27;;;;;;;13.23;6.13;;;;;;;9.14;100.00;97928.47;5118524;27;20031;-81
2022/12/23 04:17:54;;;;;;;12.30;6.47;;;;;;;9.17;100.00;97932.47;5124877;27;20030;-80
2022/12/23 04:20:20;;;;;;;16.88;7.40;;;;;;;9.17;100.00;97928.03;5105861;27;20059;-81
2022/12/23 04:22:46;;;;;;;14.45;6.97;;;;;;;9.19;100.00;97917.34;5124022;27;20051;-81
2022/12/23 04:25:13;;;;;;;16.00;7.13;;;;;;;9.21;100.00;97908.25;5120071;27;20080;-80
2022/12/23 04:27:39;;;;;;;17.50;8.05;;;;;;;9.20;100.00;97909.28;5118001;27;20034;-80
2022/12/23 04:30:06;;;;;;;16.38;7.50;;;;;;;9.23;100.00;97900.19;5107848;28;20473;-81
2022/12/23 04:32:32;;;;;;;11.90;7.30;;;;;;;9.26;100.00;97918.91;5122557;27;20491;-80
2022/12/23 04:34:57;;;;;;;13.65;7.55;;;;;;;9.19;100.00;97901.66;5122857;27;20023;-81
2022/12/23 04:37:23;;;;;;;16.58;8.07;;;;;;;9.13;100.00;97898.06;5103448;28;20073;-79
2022/12/23 04:39:49;;;;;;;17.27;8.18;;;;;;;9.18;100.00;97887.75;5123677;28;20503;-81
2022/12/23 04:42:15;;;;;;;15.48;8.57;;;;;;;9.26;100.00;97895.34;5123654;28;20019;-80
2022/12/23 04:44:40;;;;;;;17.60;9.23;;;;;;;9.23;100.00;97884.50;5106292;28;20027;-81
2022/12/23 04:47:06;;;;;;;20.23;8.40;;;;;;;9.25;100.00;97898.97;5124373;28;20083;-80
2022/12/23 04:49:31;;;;;;;22.15;10.32;;;;;;;9.16;100.00;97886.38;5122190;28;20038;-80
2022/12/23 04:51:57;;;;;;;23.13;10.75;;;;;;;9.18;100.00;97886.97;5118108;28;20047;-80
2022/12/23 04:54:22;;;;;;;22.08;10.82;;;;;;;9.19;100.00;97886.72;5121422;28;20031;-80
2022/12/23 04:56:52;;;;;;;23.60;11.23;;;;;;;9.23;100.00;97877.41;5122042;28;20028;-81
2022/12/23 04:59:18;;;;;;;18.92;9.75;;;;;;;9.21;100.00;97873.44;5119959;28;20110;-81
2022/12/23 05:01:44;;;;;;;21.63;10.45;;;;;;;9.23;100.00;97851.25;5105134;28;20062;-79
2022/12/23 05:04:10;;;;;;;27.08;12.05;;;;;;;9.25;100.00;97859.72;5126523;28;20023;-78
2022/12/23 05:06:36;;;;;;;26.30;10.93;;;;;;;9.19;100.00;97844.06;5088486;28;20517;-79
2022/12/23 05:09:03;;;;;;;27.77;12.07;;;;;;;9.27;100.00;97843.75;5124137;27;20027;-78
2022/12/23 05:11:30;;;;;;;25.52;11.52;;;;;;;9.19;100.00;97833.56;5125123;27;20030;-81
2022/12/23 05:13:56;;;;;;;26.70;13.43;;;;;;;9.17;100.00;97823.31;5130502;27;20472;-79
2022/12/23 05:16:21;;;;;;;21.60;12.32;;;;;;;9.17;100.00;97835.63;5109949;27;20035;-78
2022/12/23 05:18:48;;;;;;;26.77;12.43;;;;;;;9.10;100.00;97825.19;5123830;27;20499;-77
2022/12/23 05:21:13;;;;;;;24.52;12.45;;;;;;;8.95;100.00;97817.69;5129277;27;20019;-80
2022/12/23 05:23:39;;;;;;;26.02;12.77;;;;;;;8.98;100.00;97814.63;5127505;27;20483;-79
2022/12/23 05:26:04;;;;;;;26.35;13.55;;;;;;;9.10;100.00;97833.06;5126642;27;20024;-79
2022/12/23 05:28:30;;;;;;;31.55;15.18;;;;;;;9.20;100.00;97840.41;5106528;27;20039;-80
2022/12/23 05:31:04;;;;;;;32.33;15.20;;;;;;;9.22;100.00;97833.94;5111528;27;20039;-79
2022/12/23 05:33:30;;;;;;;31.73;15.13;;;;;;;9.16;100.00;97837.41;5121345;27;20023;-79
2022/12/23 05:35:56;;;;;;;28.88;14.05;;;;;;;9.18;100.00;97832.75;5125188;27;20061;-79
2022/12/23 05:38:22;;;;;;;30.92;14.50;;;;;;;9.14;100.00;97826.34;5109581;27;20472;-79
2022/12/23 05:40:48;;;;;;;38.55;16.15;;;;;;;9.12;100.00;97825.78;5123090;27;20026;-80
2022/12/23 05:43:14;;;;;;;33.70;15.00;;;;;;;9.16;100.00;97818.31;5129085;27;20028;-80
2022/12/23 05:45:40;;;;;;;34.70;15.35;;;;;;;9.18;100.00;97830.16;5131646;27;20022;-81
2022/12/23 05:48:06;;;;;;;29.75;13.93;;;;;;;9.15;100.00;97820.09;5124134;27;20038;-78
2022/12/23 05:50:31;;;;;;;31.23;14.95;;;;;;;9.10;100.00;97825.19;5125722;27;20043;-78
2022/12/23 05:52:57;;;;;;;29.48;14.63;;;;;;;9.17;100.00;97819.91;5124319;27;20058;-80
2022/12/23 05:55:23;;;;;;;36.17;15.25;;;;;;;9.07;100.00;97820.41;5111108;27;20485;-79
2022/12/23 05:57:50;;;;;;;32.55;15.43;;;;;;;9.15;100.00;97817.50;5125049;27;20031;-80
2022/12/23 06:00:17;;;;;;;31.55;14.35;;;;;;;9.11;100.00;97805.84;5123211;27;20027;-79
2022/12/23 06:02:43;;;;;;;32.40;15.40;;;;;;;9.10;100.00;97804.25;5105167;27;20522;-79
2022/12/23 06:05:10;;;;;;;33.70;14.13;;;;;;;9.08;100.00;97801.84;5125489;27;20031;-79
2022/12/23 06:07:36;;;;;;;30.02;14.15;;;;;;;9.10;100.00;97796.41;5128548;27;20385;-79
2022/12/23 06:10:04;;;;;;;34.08;16.13;;;;;;;9.06;100.00;97779.53;5106768;27;20031;-78
2022/12/23 06:12:30;;;;;;;34.88;14.27;;;;;;;9.07;100.00;97773.28;5102910;27;20027;-79
2022/12/23 06:14:55;;;;;;;30.70;14.40;;;;;;;9.12;100.00;97776.81;5121338;27;20036;-79
2022/12/23 06:17:21;;;;;;;80.80;17.55;;;;;;;9.04;100.00;97763.22;5124825;27;20027;-81
2022/12/23 06:19:46;;;;;;;64.22;16.75;;;;;;;9.02;100.00;97760.84;5125977;27;20032;-79
2022/12/23 06:22:12;;;;;;;33.92;16.95;;;;;;;8.96;100.00;97751.22;5124896;27;20444;-82
2022/12/23 06:24:38;;;;;;;148.15;22.13;;;;;;;8.96;100.00;97765.09;5104440;27;20037;-81
2022/12/23 06:27:04;;;;;;;59.67;17.33;;;;;;;8.93;100.00;97743.78;5109850;27;20065;-80
2022/12/23 06:29:30;;;;;;;38.65;17.33;;;;;;;8.95;100.00;97749.63;5122066;27;20358;-80
2022/12/23 06:31:56;;;;;;;40.85;16.33;;;;;;;8.85;100.00;97726.56;5105763;27;20051;-80
2022/12/23 06:34:21;;;;;;;63.80;18.35;;;;;;;8.86;100.00;97709.84;5127055;27;20023;-80
2022/12/23 06:36:47;;;;;;;36.95;17.55;;;;;;;8.96;100.00;97715.38;5124547;27;20547;-80
2022/12/23 06:39:13;;;;;;;38.92;18.23;;;;;;;8.87;100.00;97706.22;5123265;27;20079;-80
2022/12/23 06:41:39;;;;;;;151.73;24.45;;;;;;;8.80;100.00;97695.00;5109290;27;20549;-81
2022/12/23 06:44:05;;;;;;;59.90;20.30;;;;;;;8.80;100.00;97700.22;5103988;27;20031;-79
2022/12/23 06:46:31;;;;;;;42.80;18.58;;;;;;;8.79;100.00;97691.59;5126013;27;20445;-81
2022/12/23 06:48:57;;;;;;;43.08;18.73;;;;;;;8.98;100.00;97708.09;5121060;27;20038;-81
2022/12/23 06:51:23;;;;;;;52.88;20.55;;;;;;;8.82;100.00;97698.19;5121883;27;20027;-81
2022/12/23 06:53:49;;;;;;;43.83;19.25;;;;;;;8.90;100.00;97711.03;5107367;27;20499;-81
2022/12/23 06:56:15;;;;;;;107.63;24.85;;;;;;;8.83;100.00;97698.00;5089778;27;20114;-82
2022/12/23 06:58:40;;;;;;;49.85;20.67;;;;;;;8.72;100.00;97677.75;5126584;27;20112;-82
2022/12/23 07:01:06;;;;;;;55.13;24.35;;;;;;;8.86;100.00;97681.06;5125423;27;20384;-82
2022/12/23 07:03:31;;;;;;;151.65;31.20;;;;;;;8.91;100.00;97677.78;5108247;27;20028;-81
2022/12/23 07:05:57;;;;;;;65.53;26.08;;;;;;;9.03;100.00;97677.84;5085777;27;20503;-81
2022/12/23 07:08:23;;;;;;;82.50;27.30;;;;;;;8.99;100.00;97654.75;5104508;27;20054;-80
2022/12/23 07:10:57;;;;;;;90.88;28.67;;;;;;;8.96;100.00;97651.78;5120505;27;20492;-81
2022/12/23 07:13:24;;;;;;;62.33;26.60;;;;;;;8.94;100.00;97670.31;5105146;27;20098;-82
2022/12/23 07:15:50;;;;;;;79.97;26.58;;;;;;;8.83;100.00;97657.94;5120240;27;20560;-79
2022/12/23 07:18:15;;;;;;;67.25;25.33;;;;;;;8.81;100.00;97649.50;5125246;27;20059;-81
2022/12/23 07:20:41;;;;;;;69.10;25.15;;;;;;;8.74;100.00;97648.78;5124147;27;20031;-82
2022/12/23 07:23:08;;;;;;;79.90;25.75;;;;;;;8.71;100.00;97637.75;5124475;27;20388;-81
2022/12/23 07:25:33;;;;;;;70.68;25.98;;;;;;;8.73;100.00;97641.94;5123595;27;20037;-80
2022/12/23 07:27:58;;;;;;;66.03;27.00;;;;;;;8.75;100.00;97650.38;5122956;27;20025;-80
2022/12/23 07:30:24;;;;;;;62.42;25.23;;;;;;;8.69;100.00;97647.63;5121709;27;20036;-82
2022/12/23 07:32:50;;;;;;;70.50;27.05;;;;;;;8.64;100.00;97634.38;5124682;27;20092;-82
2022/12/23 07:35:16;;;;;;;117.28;29.48;;;;;;;8.63;100.00;97643.22;5126120;27;20019;-82
2022/12/23 07:37:42;;;;;;;115.35;28.75;;;;;;;8.61;100.00;97641.88;5107244;27;20095;-81
2022/12/23 07:40:08;;;;;;;100.40;28.08;;;;;;;8.59;100.00;97642.06;5123323;27;20054;-80
2022/12/23 07:42:34;;;;;;;69.60;27.48;;;;;;;8.60;100.00;97638.44;5106003;27;20019;-83
2022/12/23 07:45:00;;;;;;;94.97;27.15;;;;;;;8.65;100.00;97627.34;5101400;27;20033;-81
2022/12/23 07:47:26;;;;;;;79.53;27.67;;;;;;;8.76;100.00;97641.50;5124647;27;20437;-82
2022/12/23 07:49:52;;;;;;;96.60;29.65;;;;;;;8.65;100.00;97625.53;5126142;27;20027;-81
2022/12/23 07:52:18;;;;;;;92.28;28.50;;;;;;;8.70;100.00;97637.94;5102989;27;20033;-82
2022/12/23 07:54:43;;;;;;;67.25;27.02;;;;;;;8.73;100.00;97639.34;5119902;27;20384;-81
2022/12/23 07:57:09;;;;;;;95.18;27.30;;;;;;;8.65;100.00;97636.00;5125996;27;20031;-82
2022/12/23 07:59:34;;;;;;;90.57;28.17;;;;;;;8.73;100.00;97641.94;5101973;27;20027;-82
2022/12/23 08:02:00;;;;;;;112.10;29.23;;;;;;;8.64;100.00;97641.44;5102819;27;20107;-81
2022/12/23 08:04:26;;;;;;;165.93;30.48;;;;;;;8.72;100.00;97648.97;5103006;27;20027;-81
2022/12/23 08:06:51;;;;;;;80.18;27.02;;;;;;;8.59;100.00;97633.44;5125607;27;20118;-81
2022/12/23 08:09:17;;;;;;;113.28;29.10;;;;;;;8.64;100.00;97647.44;5083282;27;20473;-83
2022/12/23 08:11:43;;;;;;;62.70;25.63;;;;;;;8.55;100.00;97626.03;5123904;27;20115;-81
2022/12/23 08:14:08;;;;;;;160.43;31.80;;;;;;;8.59;100.00;97631.59;5107262;27;20477;-81
2022/12/23 08:16:34;;;;;;;165.10;30.00;;;;;;;8.59;100.00;97638.66;5123403;27;20030;-81
2022/12/23 08:19:00;;;;;;;181.32;29.77;;;;;;;8.59;100.00;97649.91;5123817;27;20435;-85
2022/12/23 08:21:25;;;;;;;193.75;31.83;;;;;;;8.53;100.00;97637.72;5120958;27;20354;-83
2022/12/23 08:23:51;;;;;;;132.40;29.05;;;;;;;8.51;100.00;97644.97;5124691;27;20024;-83
2022/12/23 08:26:23;;;;;;;100.45;26.33;;;;;;;8.57;100.00;97636.25;5123821;27;20030;-83
2022/12/23 08:28:52;;;;;;;100.93;26.50;;;;;;;8.34;100.00;97603.66;5104747;28;20042;-84
2022/12/23 08:31:23;;;;;;;83.32;24.02;;;;;;;8.59;100.00;97630.81;5088576;27;20043;-81
2022/12/23 08:33:52;;;;;;;107.22;26.52;;;;;;;8.55;100.00;97630.44;5123280;27;20484;-83
2022/12/23 08:36:24;;;;;;;130.10;27.92;;;;;;;8.42;100.00;97613.03;5105240;28;20034;-81
2022/12/23 08:38:51;;;;;;;100.43;24.95;;;;;;;8.33;100.00;97589.00;5113127;28;20123;-82
2022/12/23 08:41:20;;;;;;;107.43;26.48;;;;;;;8.55;100.00;97609.53;5088254;28;20355;-81
2022/12/23 08:43:46;;;;;;;148.27;27.35;;;;;;;8.50;100.00;97606.78;5100081;28;20038;-79
2022/12/23 08:46:12;;;;;;;85.60;23.73;;;;;;;8.47;100.00;97601.94;5120868;28;20034;-80
2022/12/23 08:48:38;;;;;;;70.40;25.35;;;;;;;8.60;100.00;97604.44;5102932;28;20122;-81
2022/12/23 08:51:08;;;;;;;63.10;22.65;;;;;;;8.76;100.00;97605.69;5124644;28;20106;-81
2022/12/23 08:53:36;;;;;;;103.90;24.58;;;;;;;8.62;100.00;97599.78;5085699;28;20088;-81
2022/12/23 08:56:11;;;;;;;71.30;23.52;;;;;;;8.56;100.00;97595.44;5102826;28;20114;-82
2022/12/23 08:58:42;;;;;;;72.55;22.80;;;;;;;8.68;100.00;97591.09;5086338;28;20035;-87
2022/12/23 09:01:11;;;;;;;65.35;22.85;;;;;;;8.67;100.00;97586.88;5106732;28;20039;-84
2022/12/23 09:03:37;;;;;;;158.68;23.25;;;;;;;8.48;100.00;97556.47;5118381;28;20031;-86
2022/12/23 09:06:18;;;;;;;77.93;20.58;;;;;;;8.58;100.00;97569.84;5098155;28;20027;-87
2022/12/23 09:08:44;;;;;;;154.82;23.63;;;;;;;8.60;100.00;97559.97;5106504;28;20073;-87
2022/12/23 09:11:12;;;;;;;72.45;20.05;;;;;;;8.66;100.00;97559.13;5085721;28;20035;-86
2022/12/23 09:13:37;;;;;;;60.45;19.13;;;;;;;8.70;100.00;97544.59;5105408;28;20034;-85
2022/12/23 09:16:04;;;;;;;69.32;19.30;;;;;;;8.61;100.00;97550.31;5123433;28;20030;-84
2022/12/23 09:18:30;;;;;;;89.25;19.88;;;;;;;8.53;100.00;97538.34;5104828;28;20038;-86
2022/12/23 09:21:01;;;;;;;79.93;19.60;;;;;;;8.61;100.00;97551.09;5101978;28;20536;-84
2022/12/23 09:23:27;;;;;;;54.40;17.38;;;;;;;8.43;100.00;97539.59;5124982;28;20031;-82
2022/12/23 09:25:54;;;;;;;105.15;18.98;;;;;;;8.41;100.00;97533.00;5124896;28;20027;-82
2022/12/23 09:28:20;;;;;;;175.68;22.50;;;;;;;8.52;100.00;97541.97;5113337;28;20380;-82
2022/12/23 09:30:45;;;;;;;48.60;18.38;;;;;;;8.44;100.00;97530.72;5116120;28;20118;-82
2022/12/23 09:33:11;;;;;;;45.03;17.55;;;;;;;8.54;100.00;97539.94;5098761;28;20028;-81
2022/12/23 09:35:37;;;;;;;50.35;16.77;;;;;;;8.51;100.00;97529.91;5086270;28;20106;-82
2022/12/23 09:38:03;;;;;;;91.15;19.95;;;;;;;8.61;100.00;97543.25;5097469;28;20124;-80
2022/12/23 09:40:32;;;;;;;43.40;16.90;;;;;;;8.68;100.00;97546.63;5090609;28;20106;-86
2022/12/23 09:43:28;;;;;;;51.67;17.52;;;;;;;8.68;100.00;97545.81;5123895;28;20020;-86
2022/12/23 09:46:10;;;;;;;52.70;17.40;;;;;;;8.68;100.00;97520.47;5099817;28;20066;-86
2022/12/23 09:48:52;;;;;;;90.20;20.52;;;;;;;8.67;100.00;97526.72;5102044;28;20027;-86
2022/12/23 09:51:22;;;;;;;50.20;16.48;;;;;;;8.53;100.00;97527.88;5083235;28;20084;-84
2022/12/23 09:53:57;;;;;;;50.60;18.73;;;;;;;8.46;100.00;97514.06;5122339;27;20039;-83
2022/12/23 09:56:31;;;;;;;53.67;16.50;;;;;;;8.66;100.00;97529.53;5101797;27;20023;-84
2022/12/23 09:59:34;;;;;;;49.85;17.02;;;;;;;8.62;100.00;97526.56;5105250;27;20031;-85
2022/12/23 10:02:12;;;;;;;44.92;17.35;;;;;;;8.62;100.00;97526.56;5122243;27;20058;-85
2022/12/23 10:04:54;;;;;;;39.90;15.60;;;;;;;8.65;100.00;97515.69;5108926;27;20031;-86
2022/12/23 10:07:38;;;;;;;89.82;18.50;;;;;;;8.66;100.00;97517.28;5126630;27;20027;-81
2022/12/23 10:10:29;;;;;;;40.08;15.35;;;;;;;8.70;100.00;97518.41;5102670;27;20122;-80
2022/12/23 10:12:59;;;;;;;78.57;18.17;;;;;;;8.54;100.00;97504.09;5118048;27;20027;-86
2022/12/23 10:15:27;;;;;;;57.17;15.70;;;;;;;8.51;100.00;97519.44;5106357;27;20046;-87
2022/12/23 10:17:57;;;;;;;39.38;15.82;;;;;;;8.63;100.00;97515.06;5122275;27;20028;-86
2022/12/23 10:20:33;;;;;;;48.75;16.35;;;;;;;8.57;100.00;97518.56;5102759;27;20118;-85
2022/12/23 10:22:59;;;;;;;40.67;15.57;;;;;;;8.53;100.00;97510.34;5128652;27;20035;-84
2022/12/23 10:25:31;;;;;;;46.10;15.35;;;;;;;8.62;100.00;97520.53;5120817;27;20036;-85
2022/12/23 10:27:57;;;;;;;45.10;15.75;;;;;;;8.61;100.00;97519.72;5102367;27;20103;-84
2022/12/23 10:30:23;;;;;;;45.20;16.52;;;;;;;8.57;100.00;97518.56;5120062;27;20122;-85
2022/12/23 10:32:59;;;;;;;41.95;16.08;;;;;;;8.61;100.00;97517.09;5122248;27;20031;-86
2022/12/23 10:35:40;;;;;;;35.78;15.65;;;;;;;8.43;100.00;97516.06;5105850;27;20031;-86
2022/12/23 10:38:08;;;;;;;34.28;14.23;;;;;;;8.60;100.00;97512.91;5100268;27;20485;-86
2022/12/23 10:40:58;;;;;;;35.70;13.45;;;;;;;8.63;100.00;97504.59;5107698;27;20810;-86
2022/12/23 10:43:44;;;;;;;37.92;15.13;;;;;;;8.68;100.00;97510.00;5121346;27;20038;-86
2022/12/23 10:46:30;;;;;;;31.65;14.13;;;;;;;8.51;100.00;97495.91;5122919;27;20027;-85
2022/12/23 10:49:28;;;;;;;28.52;12.13;;;;;;;8.39;100.00;97480.13;5101973;28;20046;-87
2022/12/23 10:52:02;;;;;;;24.35;11.75;;;;;;;8.47;100.00;97497.34;5125347;27;20047;-85
2022/12/23 10:54:35;;;;;;;23.23;11.05;;;;;;;8.65;100.00;97494.75;5119419;27;20066;-86
2022/12/23 10:57:03;;;;;;;76.70;16.08;;;;;;;8.66;100.00;97496.34;5106556;27;20069;-87
2022/12/23 10:59:31;;;;;;;50.13;14.05;;;;;;;8.78;100.00;97490.34;5105398;27;20035;-87
2022/12/23 11:02:12;;;;;;;28.83;11.90;;;;;;;8.79;100.00;97487.53;5104757;28;20031;-85
2022/12/23 11:04:47;;;;;;;26.52;12.70;;;;;;;8.85;100.00;97483.22;5103740;27;20031;-86
2022/12/23 11:07:16;;;;;;;43.55;17.92;;;;;;;8.81;100.00;97484.66;5121976;27;20384;-85
2022/12/23 11:09:51;;;;;;;62.72;18.88;;;;;;;8.79;100.00;97477.06;5126966;27;20027;-85
2022/12/23 11:12:22;;;;;;;28.70;13.55;;;;;;;8.88;100.00;97476.75;5119062;27;20034;-84
2022/12/23 11:14:55;;;;;;;34.42;14.98;;;;;;;8.86;100.00;97474.38;5123877;27;20511;-80
2022/12/23 11:17:27;;;;;;;28.58;13.95;;;;;;;8.83;100.00;97464.31;5091046;27;20024;-85
2022/12/23 11:20:15;;;;;;;20.45;10.38;;;;;;;8.94;100.00;97458.34;5124953;27;20030;-85
2022/12/23 11:22:57;;;;;;;25.50;10.48;;;;;;;8.94;100.00;97465.38;5110811;27;20072;-84
2022/12/23 11:25:26;;;;;;;16.20;8.38;;;;;;;8.77;100.00;97450.31;5090257;27;20030;-86
2022/12/23 11:28:09;;;;;;;20.83;10.18;;;;;;;8.79;100.00;97437.81;5123222;27;20129;-86
2022/12/23 11:30:51;;;;;;;20.33;11.00;;;;;;;8.95;100.00;97443.44;5099029;28;20089;-86
2022/12/23 11:33:21;;;;;;;27.88;12.88;;;;;;;8.96;100.00;97432.75;5088448;28;20096;-86
2022/12/23 11:36:18;;;;;;;23.88;11.68;;;;;;;9.02;100.00;97443.31;5084519;28;20041;-87
2022/12/23 11:38:50;;;;;;;20.38;10.10;;;;;;;8.92;100.00;97426.38;5084337;28;20055;-87
2022/12/23 11:41:28;;;;;;;23.88;11.85;;;;;;;8.93;100.00;97429.75;5099962;28;20028;-86
2022/12/23 11:44:19;;;;;;;22.70;12.73;;;;;;;8.96;100.00;97437.19;5108261;28;20362;-86
2022/12/23 11:46:45;;;;;;;18.77;10.05;;;;;;;8.87;100.00;97415.78;5101458;28;20028;-83
2022/12/23 11:49:30;;;;;;;23.65;12.02;;;;;;;8.91;100.00;97395.97;5101262;28;20127;-84
2022/12/23 11:52:12;;;;;;;19.88;9.18;;;;;;;9.10;100.00;97411.63;5098348;28;20578;-86
2022/12/23 11:54:38;;;;;;;19.80;9.30;;;;;;;9.11;100.00;97418.44;5095525;28;20073;-84
2022/12/23 11:57:13;;;;;;;13.98;7.93;;;;;;;9.15;100.00;97414.34;5100194;28;20027;-85
2022/12/23 11:59:47;;;;;;;15.20;9.05;;;;;;;9.11;100.00;97415.81;5101888;28;20023;-85